sensor_id;sensor_type;location;lat;lon;timestamp;P1;durP1;ratioP1;P2;durP2;ratioP2
80541;SDS011;69870;51.460;8.842;2023-07-31T00:02:15;13.98;;;3.83;;
80541;SDS011;69870;51.460;8.842;2023-07-31T00:04:42;7.28;;;4.15;;
80541;SDS011;69870;51.460;8.842;2023-07-31T00:07:10;5.72;;;3.72;;
80541;SDS011;69870;51.460;8.842;2023-07-31T00:09:36;6.90;;;3.60;;
80541;SDS011;69870;51.460;8.842;2023-07-31T00:12:03;8.40;;;3.08;;
80541;SDS011;69870;51.460;8.842;2023-07-31T00:14:30;8.95;;;3.90;;
80541;SDS011;69870;51.460;8.842;2023-07-31T00:16:57;7.95;;;3.80;;
80541;SDS011;69870;51.460;8.842;2023-07-31T00:19:24;15.13;;;3.50;;
80541;SDS011;69870;51.460;8.842;2023-07-31T00:21:50;8.43;;;2.58;;
80541;SDS011;69870;51.460;8.842;2023-07-31T00:24:18;10.07;;;3.17;;
80541;SDS011;69870;51.460;8.842;2023-07-31T00:26:44;10.90;;;2.95;;
80541;SDS011;69870;51.460;8.842;2023-07-31T00:29:11;8.07;;;3.28;;
80541;SDS011;69870;51.460;8.842;2023-07-31T00:31:38;16.60;;;3.40;;
80541;SDS011;69870;51.460;8.842;2023-07-31T00:34:04;6.22;;;3.15;;
80541;SDS011;69870;51.460;8.842;2023-07-31T00:36:34;12.23;;;4.35;;
80541;SDS011;69870;51.460;8.842;2023-07-31T00:39:00;11.63;;;3.28;;
80541;SDS011;69870;51.460;8.842;2023-07-31T00:41:28;7.70;;;3.78;;
80541;SDS011;69870;51.460;8.842;2023-07-31T00:43:55;8.55;;;4.10;;
80541;SDS011;69870;51.460;8.842;2023-07-31T00:46:21;9.55;;;4.00;;
80541;SDS011;69870;51.460;8.842;2023-07-31T00:48:48;9.68;;;4.10;;
80541;SDS011;69870;51.460;8.842;2023-07-31T00:51:15;10.32;;;4.10;;
80541;SDS011;69870;51.460;8.842;2023-07-31T00:53:42;9.43;;;3.97;;
80541;SDS011;69870;51.460;8.842;2023-07-31T00:56:09;7.53;;;3.72;;
80541;SDS011;69870;51.460;8.842;2023-07-31T00:58:39;15.23;;;4.13;;
80541;SDS011;69870;51.460;8.842;2023-07-31T01:01:07;8.68;;;4.15;;
80541;SDS011;69870;51.460;8.842;2023-07-31T01:03:33;12.43;;;3.83;;
80541;SDS011;69870;51.460;8.842;2023-07-31T01:06:04;10.20;;;4.22;;
80541;SDS011;69870;51.460;8.842;2023-07-31T01:08:41;8.77;;;3.90;;
80541;SDS011;69870;51.460;8.842;2023-07-31T01:11:16;11.68;;;4.55;;
80541;SDS011;69870;51.460;8.842;2023-07-31T01:13:47;7.45;;;4.80;;
80541;SDS011;69870;51.460;8.842;2023-07-31T01:16:14;11.40;;;4.00;;
80541;SDS011;69870;51.460;8.842;2023-07-31T01:18:40;11.55;;;4.72;;
80541;SDS011;69870;51.460;8.842;2023-07-31T01:21:12;10.40;;;4.35;;
80541;SDS011;69870;51.460;8.842;2023-07-31T01:23:57;7.18;;;3.85;;
80541;SDS011;69870;51.460;8.842;2023-07-31T01:26:43;7.80;;;4.03;;
80541;SDS011;69870;51.460;8.842;2023-07-31T01:29:14;7.95;;;4.03;;
80541;SDS011;69870;51.460;8.842;2023-07-31T01:31:47;5.88;;;3.88;;
80541;SDS011;69870;51.460;8.842;2023-07-31T01:34:16;6.32;;;3.33;;
80541;SDS011;69870;51.460;8.842;2023-07-31T01:36:44;7.35;;;3.72;;
80541;SDS011;69870;51.460;8.842;2023-07-31T01:39:11;8.48;;;3.60;;
80541;SDS011;69870;51.460;8.842;2023-07-31T01:41:37;7.57;;;3.95;;
80541;SDS011;69870;51.460;8.842;2023-07-31T01:44:06;9.40;;;4.43;;
80541;SDS011;69870;51.460;8.842;2023-07-31T01:46:33;9.18;;;4.68;;
80541;SDS011;69870;51.460;8.842;2023-07-31T01:49:00;9.48;;;4.97;;
80541;SDS011;69870;51.460;8.842;2023-07-31T01:51:26;6.50;;;3.85;;
80541;SDS011;69870;51.460;8.842;2023-07-31T01:53:53;14.10;;;4.55;;
80541;SDS011;69870;51.460;8.842;2023-07-31T01:56:19;15.57;;;5.28;;
80541;SDS011;69870;51.460;8.842;2023-07-31T01:58:46;12.43;;;3.95;;
80541;SDS011;69870;51.460;8.842;2023-07-31T02:01:14;13.70;;;5.22;;
80541;SDS011;69870;51.460;8.842;2023-07-31T02:03:40;8.95;;;4.20;;
80541;SDS011;69870;51.460;8.842;2023-07-31T02:06:07;11.35;;;5.47;;
80541;SDS011;69870;51.460;8.842;2023-07-31T02:08:33;12.10;;;4.85;;
80541;SDS011;69870;51.460;8.842;2023-07-31T02:11:00;11.38;;;3.80;;
80541;SDS011;69870;51.460;8.842;2023-07-31T02:13:27;9.05;;;4.07;;
80541;SDS011;69870;51.460;8.842;2023-07-31T02:15:53;15.52;;;4.25;;
80541;SDS011;69870;51.460;8.842;2023-07-31T02:18:21;8.13;;;3.90;;
80541;SDS011;69870;51.460;8.842;2023-07-31T02:20:48;6.93;;;3.38;;
80541;SDS011;69870;51.460;8.842;2023-07-31T02:23:16;11.00;;;3.80;;
80541;SDS011;69870;51.460;8.842;2023-07-31T02:25:42;7.47;;;3.83;;
80541;SDS011;69870;51.460;8.842;2023-07-31T02:28:09;9.75;;;4.30;;
80541;SDS011;69870;51.460;8.842;2023-07-31T02:30:36;9.75;;;4.45;;
80541;SDS011;69870;51.460;8.842;2023-07-31T02:33:03;9.05;;;4.63;;
80541;SDS011;69870;51.460;8.842;2023-07-31T02:35:31;9.15;;;4.93;;
80541;SDS011;69870;51.460;8.842;2023-07-31T02:37:58;8.52;;;4.78;;
80541;SDS011;69870;51.460;8.842;2023-07-31T02:40:24;18.08;;;5.00;;
80541;SDS011;69870;51.460;8.842;2023-07-31T02:42:51;8.40;;;4.90;;
80541;SDS011;69870;51.460;8.842;2023-07-31T02:45:17;17.73;;;6.55;;
80541;SDS011;69870;51.460;8.842;2023-07-31T02:47:44;17.75;;;6.30;;
80541;SDS011;69870;51.460;8.842;2023-07-31T02:50:10;14.75;;;6.78;;
80541;SDS011;69870;51.460;8.842;2023-07-31T02:52:38;19.13;;;7.20;;
80541;SDS011;69870;51.460;8.842;2023-07-31T02:55:05;24.63;;;8.38;;
80541;SDS011;69870;51.460;8.842;2023-07-31T02:57:32;20.75;;;7.93;;
80541;SDS011;69870;51.460;8.842;2023-07-31T02:59:59;17.58;;;7.32;;
80541;SDS011;69870;51.460;8.842;2023-07-31T03:02:25;18.27;;;8.20;;
80541;SDS011;69870;51.460;8.842;2023-07-31T03:04:52;21.15;;;8.50;;
80541;SDS011;69870;51.460;8.842;2023-07-31T03:07:18;19.92;;;8.23;;
80541;SDS011;69870;51.460;8.842;2023-07-31T03:09:46;22.40;;;7.95;;
80541;SDS011;69870;51.460;8.842;2023-07-31T03:12:14;20.00;;;8.63;;
80541;SDS011;69870;51.460;8.842;2023-07-31T03:14:40;22.02;;;9.20;;
80541;SDS011;69870;51.460;8.842;2023-07-31T03:17:07;20.52;;;7.60;;
80541;SDS011;69870;51.460;8.842;2023-07-31T03:19:34;17.70;;;8.13;;
80541;SDS011;69870;51.460;8.842;2023-07-31T03:22:00;24.42;;;8.15;;
80541;SDS011;69870;51.460;8.842;2023-07-31T03:24:28;24.48;;;8.88;;
80541;SDS011;69870;51.460;8.842;2023-07-31T03:26:56;27.92;;;10.02;;
80541;SDS011;69870;51.460;8.842;2023-07-31T03:29:22;18.50;;;6.40;;
80541;SDS011;69870;51.460;8.842;2023-07-31T03:31:49;18.70;;;7.75;;
80541;SDS011;69870;51.460;8.842;2023-07-31T03:34:15;20.48;;;8.20;;
80541;SDS011;69870;51.460;8.842;2023-07-31T03:36:42;19.20;;;7.60;;
80541;SDS011;69870;51.460;8.842;2023-07-31T03:39:09;20.95;;;8.32;;
80541;SDS011;69870;51.460;8.842;2023-07-31T03:41:36;16.23;;;8.35;;
80541;SDS011;69870;51.460;8.842;2023-07-31T03:44:04;15.18;;;6.00;;
80541;SDS011;69870;51.460;8.842;2023-07-31T03:46:30;17.25;;;6.85;;
80541;SDS011;69870;51.460;8.842;2023-07-31T03:48:57;15.55;;;6.00;;
80541;SDS011;69870;51.460;8.842;2023-07-31T03:51:23;16.92;;;5.95;;
80541;SDS011;69870;51.460;8.842;2023-07-31T03:53:50;14.75;;;5.57;;
80541;SDS011;69870;51.460;8.842;2023-07-31T03:56:16;20.27;;;6.05;;
80541;SDS011;69870;51.460;8.842;2023-07-31T03:58:43;12.05;;;6.00;;
80541;SDS011;69870;51.460;8.842;2023-07-31T04:01:11;12.77;;;5.93;;
80541;SDS011;69870;51.460;8.842;2023-07-31T04:03:37;13.38;;;5.85;;
80541;SDS011;69870;51.460;8.842;2023-07-31T04:06:04;22.38;;;5.82;;
80541;SDS011;69870;51.460;8.842;2023-07-31T04:08:32;19.20;;;6.55;;
80541;SDS011;69870;51.460;8.842;2023-07-31T04:10:58;20.10;;;5.80;;
80541;SDS011;69870;51.460;8.842;2023-07-31T04:13:25;12.15;;;5.72;;
80541;SDS011;69870;51.460;8.842;2023-07-31T04:15:52;13.52;;;6.65;;
80541;SDS011;69870;51.460;8.842;2023-07-31T04:18:20;15.02;;;6.38;;
80541;SDS011;69870;51.460;8.842;2023-07-31T04:20:47;12.05;;;5.85;;
80541;SDS011;69870;51.460;8.842;2023-07-31T04:23:13;23.20;;;5.18;;
80541;SDS011;69870;51.460;8.842;2023-07-31T04:25:40;10.95;;;5.93;;
80541;SDS011;69870;51.460;8.842;2023-07-31T04:28:07;15.07;;;5.55;;
80541;SDS011;69870;51.460;8.842;2023-07-31T04:30:33;15.02;;;5.25;;
80541;SDS011;69870;51.460;8.842;2023-07-31T04:33:01;14.15;;;5.38;;
80541;SDS011;69870;51.460;8.842;2023-07-31T04:35:29;19.60;;;5.63;;
80541;SDS011;69870;51.460;8.842;2023-07-31T04:37:55;23.05;;;5.65;;
80541;SDS011;69870;51.460;8.842;2023-07-31T04:40:22;19.35;;;5.78;;
80541;SDS011;69870;51.460;8.842;2023-07-31T04:42:49;27.10;;;6.40;;
80541;SDS011;69870;51.460;8.842;2023-07-31T04:45:15;21.38;;;5.47;;
80541;SDS011;69870;51.460;8.842;2023-07-31T04:47:42;12.88;;;5.10;;
80541;SDS011;69870;51.460;8.842;2023-07-31T04:50:09;17.85;;;5.15;;
80541;SDS011;69870;51.460;8.842;2023-07-31T04:52:37;17.52;;;5.25;;
80541;SDS011;69870;51.460;8.842;2023-07-31T04:55:04;23.00;;;6.93;;
80541;SDS011;69870;51.460;8.842;2023-07-31T04:57:31;15.32;;;5.40;;
80541;SDS011;69870;51.460;8.842;2023-07-31T04:59:57;16.00;;;5.22;;
80541;SDS011;69870;51.460;8.842;2023-07-31T05:02:24;16.60;;;5.55;;
80541;SDS011;69870;51.460;8.842;2023-07-31T05:04:50;23.05;;;6.88;;
80541;SDS011;69870;51.460;8.842;2023-07-31T05:07:17;14.55;;;5.32;;
80541;SDS011;69870;51.460;8.842;2023-07-31T05:09:45;13.68;;;5.93;;
80541;SDS011;69870;51.460;8.842;2023-07-31T05:12:11;23.38;;;6.03;;
80541;SDS011;69870;51.460;8.842;2023-07-31T05:14:38;15.77;;;6.40;;
80541;SDS011;69870;51.460;8.842;2023-07-31T05:17:05;19.58;;;5.78;;
80541;SDS011;69870;51.460;8.842;2023-07-31T05:19:31;17.15;;;5.93;;
80541;SDS011;69870;51.460;8.842;2023-07-31T05:21:58;28.23;;;5.72;;
80541;SDS011;69870;51.460;8.842;2023-07-31T05:24:24;19.98;;;6.88;;
80541;SDS011;69870;51.460;8.842;2023-07-31T05:26:52;14.70;;;5.82;;
80541;SDS011;69870;51.460;8.842;2023-07-31T05:29:19;14.07;;;5.30;;
80541;SDS011;69870;51.460;8.842;2023-07-31T05:31:46;21.10;;;5.60;;
80541;SDS011;69870;51.460;8.842;2023-07-31T05:34:13;18.55;;;6.80;;
80541;SDS011;69870;51.460;8.842;2023-07-31T05:36:39;16.90;;;6.07;;
80541;SDS011;69870;51.460;8.842;2023-07-31T05:39:06;18.77;;;6.07;;
80541;SDS011;69870;51.460;8.842;2023-07-31T05:41:33;21.27;;;6.97;;
80541;SDS011;69870;51.460;8.842;2023-07-31T05:44:03;18.00;;;6.00;;
80541;SDS011;69870;51.460;8.842;2023-07-31T05:46:29;12.75;;;5.80;;
80541;SDS011;69870;51.460;8.842;2023-07-31T05:48:57;17.77;;;5.60;;
80541;SDS011;69870;51.460;8.842;2023-07-31T05:51:25;18.27;;;5.82;;
80541;SDS011;69870;51.460;8.842;2023-07-31T05:53:52;14.85;;;6.20;;
80541;SDS011;69870;51.460;8.842;2023-07-31T05:56:18;21.02;;;4.85;;
80541;SDS011;69870;51.460;8.842;2023-07-31T05:58:45;17.65;;;5.18;;
80541;SDS011;69870;51.460;8.842;2023-07-31T06:01:13;12.85;;;5.95;;
80541;SDS011;69870;51.460;8.842;2023-07-31T06:03:41;22.77;;;6.03;;
80541;SDS011;69870;51.460;8.842;2023-07-31T06:06:07;17.77;;;5.55;;
80541;SDS011;69870;51.460;8.842;2023-07-31T06:08:34;14.75;;;4.90;;
80541;SDS011;69870;51.460;8.842;2023-07-31T06:11:01;20.23;;;5.20;;
80541;SDS011;69870;51.460;8.842;2023-07-31T06:13:27;19.17;;;6.80;;
80541;SDS011;69870;51.460;8.842;2023-07-31T06:15:54;19.23;;;6.22;;
80541;SDS011;69870;51.460;8.842;2023-07-31T06:18:21;13.35;;;5.60;;
80541;SDS011;69870;51.460;8.842;2023-07-31T06:20:48;21.48;;;6.07;;
80541;SDS011;69870;51.460;8.842;2023-07-31T06:23:18;16.92;;;5.72;;
80541;SDS011;69870;51.460;8.842;2023-07-31T06:25:56;21.83;;;6.53;;
80541;SDS011;69870;51.460;8.842;2023-07-31T06:28:39;18.55;;;6.43;;
80541;SDS011;69870;51.460;8.842;2023-07-31T06:31:06;18.08;;;6.55;;
80541;SDS011;69870;51.460;8.842;2023-07-31T06:33:34;21.15;;;6.90;;
80541;SDS011;69870;51.460;8.842;2023-07-31T06:36:00;12.68;;;5.75;;
80541;SDS011;69870;51.460;8.842;2023-07-31T06:38:27;18.95;;;6.43;;
80541;SDS011;69870;51.460;8.842;2023-07-31T06:40:53;16.63;;;6.20;;
80541;SDS011;69870;51.460;8.842;2023-07-31T06:43:20;16.73;;;6.18;;
80541;SDS011;69870;51.460;8.842;2023-07-31T06:45:47;13.68;;;5.78;;
80541;SDS011;69870;51.460;8.842;2023-07-31T06:48:16;21.35;;;5.85;;
80541;SDS011;69870;51.460;8.842;2023-07-31T06:50:44;14.48;;;5.65;;
80541;SDS011;69870;51.460;8.842;2023-07-31T06:53:10;15.88;;;5.53;;
80541;SDS011;69870;51.460;8.842;2023-07-31T06:55:37;12.10;;;5.65;;
80541;SDS011;69870;51.460;8.842;2023-07-31T06:58:03;15.82;;;4.97;;
80541;SDS011;69870;51.460;8.842;2023-07-31T07:00:30;12.05;;;4.80;;
80541;SDS011;69870;51.460;8.842;2023-07-31T07:02:57;11.52;;;4.72;;
80541;SDS011;69870;51.460;8.842;2023-07-31T07:05:24;13.68;;;4.70;;
80541;SDS011;69870;51.460;8.842;2023-07-31T07:07:52;11.52;;;4.70;;
80541;SDS011;69870;51.460;8.842;2023-07-31T07:10:18;9.20;;;4.40;;
80541;SDS011;69870;51.460;8.842;2023-07-31T07:12:45;8.27;;;4.03;;
80541;SDS011;69870;51.460;8.842;2023-07-31T07:15:12;8.55;;;4.13;;
80541;SDS011;69870;51.460;8.842;2023-07-31T07:17:38;14.52;;;4.45;;
80541;SDS011;69870;51.460;8.842;2023-07-31T07:20:05;8.75;;;4.85;;
80541;SDS011;69870;51.460;8.842;2023-07-31T07:22:33;12.57;;;5.65;;
80541;SDS011;69870;51.460;8.842;2023-07-31T07:25:01;15.80;;;5.78;;
80541;SDS011;69870;51.460;8.842;2023-07-31T07:27:28;10.93;;;5.10;;
80541;SDS011;69870;51.460;8.842;2023-07-31T07:29:54;10.27;;;4.10;;
80541;SDS011;69870;51.460;8.842;2023-07-31T07:32:21;20.77;;;4.68;;
80541;SDS011;69870;51.460;8.842;2023-07-31T07:34:48;13.68;;;4.53;;
80541;SDS011;69870;51.460;8.842;2023-07-31T07:37:15;9.35;;;4.72;;
80541;SDS011;69870;51.460;8.842;2023-07-31T07:39:42;12.07;;;4.00;;
80541;SDS011;69870;51.460;8.842;2023-07-31T07:42:10;7.60;;;3.75;;
80541;SDS011;69870;51.460;8.842;2023-07-31T07:44:36;20.02;;;4.32;;
80541;SDS011;69870;51.460;8.842;2023-07-31T07:47:03;8.15;;;3.78;;
80541;SDS011;69870;51.460;8.842;2023-07-31T07:49:31;9.98;;;4.30;;
80541;SDS011;69870;51.460;8.842;2023-07-31T07:51:57;8.85;;;4.40;;
80541;SDS011;69870;51.460;8.842;2023-07-31T07:54:24;10.32;;;4.03;;
80541;SDS011;69870;51.460;8.842;2023-07-31T07:56:50;11.25;;;4.80;;
80541;SDS011;69870;51.460;8.842;2023-07-31T07:59:18;19.30;;;5.35;;
80541;SDS011;69870;51.460;8.842;2023-07-31T08:01:45;11.35;;;5.22;;
80541;SDS011;69870;51.460;8.842;2023-07-31T08:04:11;12.77;;;5.55;;
80541;SDS011;69870;51.460;8.842;2023-07-31T08:06:38;8.05;;;4.60;;
80541;SDS011;69870;51.460;8.842;2023-07-31T08:09:05;10.18;;;5.43;;
80541;SDS011;69870;51.460;8.842;2023-07-31T08:11:31;13.55;;;5.00;;
80541;SDS011;69870;51.460;8.842;2023-07-31T08:13:58;11.10;;;5.63;;
80541;SDS011;69870;51.460;8.842;2023-07-31T08:16:26;13.45;;;6.50;;
80541;SDS011;69870;51.460;8.842;2023-07-31T08:18:52;11.43;;;5.07;;
80541;SDS011;69870;51.460;8.842;2023-07-31T08:21:19;13.98;;;6.32;;
80541;SDS011;69870;51.460;8.842;2023-07-31T08:23:46;16.83;;;6.72;;
80541;SDS011;69870;51.460;8.842;2023-07-31T08:26:14;10.20;;;5.25;;
80541;SDS011;69870;51.460;8.842;2023-07-31T08:28:41;15.70;;;6.18;;
80541;SDS011;69870;51.460;8.842;2023-07-31T08:31:07;11.43;;;5.45;;
80541;SDS011;69870;51.460;8.842;2023-07-31T08:33:35;12.32;;;6.15;;
80541;SDS011;69870;51.460;8.842;2023-07-31T08:36:02;13.18;;;5.57;;
80541;SDS011;69870;51.460;8.842;2023-07-31T08:38:29;13.88;;;5.03;;
80541;SDS011;69870;51.460;8.842;2023-07-31T08:40:56;8.15;;;4.60;;
80541;SDS011;69870;51.460;8.842;2023-07-31T08:43:23;12.32;;;4.35;;
80541;SDS011;69870;51.460;8.842;2023-07-31T08:45:51;8.52;;;4.82;;
80541;SDS011;69870;51.460;8.842;2023-07-31T08:48:18;11.93;;;4.10;;
80541;SDS011;69870;51.460;8.842;2023-07-31T08:50:47;10.13;;;4.28;;
80541;SDS011;69870;51.460;8.842;2023-07-31T08:53:13;10.07;;;4.30;;
80541;SDS011;69870;51.460;8.842;2023-07-31T08:55:41;9.77;;;4.07;;
80541;SDS011;69870;51.460;8.842;2023-07-31T08:58:09;6.72;;;3.92;;
80541;SDS011;69870;51.460;8.842;2023-07-31T09:00:38;8.38;;;4.05;;
80541;SDS011;69870;51.460;8.842;2023-07-31T09:03:07;7.97;;;4.22;;
80541;SDS011;69870;51.460;8.842;2023-07-31T09:05:36;11.43;;;3.80;;
80541;SDS011;69870;51.460;8.842;2023-07-31T09:08:07;5.70;;;3.17;;
80541;SDS011;69870;51.460;8.842;2023-07-31T09:10:35;6.30;;;3.58;;
80541;SDS011;69870;51.460;8.842;2023-07-31T09:13:01;7.40;;;3.67;;
80541;SDS011;69870;51.460;8.842;2023-07-31T09:15:29;15.18;;;4.10;;
80541;SDS011;69870;51.460;8.842;2023-07-31T09:17:58;8.40;;;4.15;;
80541;SDS011;69870;51.460;8.842;2023-07-31T09:20:26;8.93;;;3.63;;
80541;SDS011;69870;51.460;8.842;2023-07-31T09:22:52;11.32;;;3.55;;
80541;SDS011;69870;51.460;8.842;2023-07-31T09:25:21;7.57;;;3.97;;
80541;SDS011;69870;51.460;8.842;2023-07-31T09:27:48;8.98;;;3.55;;
80541;SDS011;69870;51.460;8.842;2023-07-31T09:30:16;6.75;;;3.58;;
80541;SDS011;69870;51.460;8.842;2023-07-31T09:32:43;8.30;;;4.30;;
80541;SDS011;69870;51.460;8.842;2023-07-31T09:35:14;6.40;;;3.75;;
80541;SDS011;69870;51.460;8.842;2023-07-31T09:37:48;10.15;;;4.10;;
80541;SDS011;69870;51.460;8.842;2023-07-31T09:40:26;7.15;;;3.60;;
80541;SDS011;69870;51.460;8.842;2023-07-31T09:42:55;6.07;;;3.42;;
80541;SDS011;69870;51.460;8.842;2023-07-31T09:45:23;6.75;;;3.88;;
80541;SDS011;69870;51.460;8.842;2023-07-31T09:47:50;9.35;;;3.70;;
80541;SDS011;69870;51.460;8.842;2023-07-31T09:50:16;4.90;;;3.30;;
80541;SDS011;69870;51.460;8.842;2023-07-31T09:52:43;7.93;;;3.88;;
80541;SDS011;69870;51.460;8.842;2023-07-31T09:55:10;7.70;;;3.97;;
80541;SDS011;69870;51.460;8.842;2023-07-31T09:57:39;9.75;;;3.47;;
80541;SDS011;69870;51.460;8.842;2023-07-31T10:00:08;6.85;;;3.38;;
80541;SDS011;69870;51.460;8.842;2023-07-31T10:02:37;6.38;;;3.58;;
80541;SDS011;69870;51.460;8.842;2023-07-31T10:05:04;11.45;;;4.07;;
80541;SDS011;69870;51.460;8.842;2023-07-31T10:07:33;8.48;;;3.28;;
80541;SDS011;69870;51.460;8.842;2023-07-31T10:10:03;9.10;;;3.35;;
80541;SDS011;69870;51.460;8.842;2023-07-31T10:12:33;5.28;;;3.25;;
80541;SDS011;69870;51.460;8.842;2023-07-31T10:15:02;5.55;;;2.80;;
80541;SDS011;69870;51.460;8.842;2023-07-31T10:17:29;6.47;;;3.28;;
80541;SDS011;69870;51.460;8.842;2023-07-31T10:19:57;5.10;;;3.00;;
80541;SDS011;69870;51.460;8.842;2023-07-31T10:22:24;5.68;;;2.92;;
80541;SDS011;69870;51.460;8.842;2023-07-31T10:24:52;4.75;;;2.95;;
80541;SDS011;69870;51.460;8.842;2023-07-31T10:27:20;7.40;;;2.58;;
80541;SDS011;69870;51.460;8.842;2023-07-31T10:29:47;4.10;;;2.40;;
80541;SDS011;69870;51.460;8.842;2023-07-31T10:32:16;7.40;;;2.63;;
80541;SDS011;69870;51.460;8.842;2023-07-31T10:34:43;5.43;;;2.40;;
80541;SDS011;69870;51.460;8.842;2023-07-31T10:37:20;7.82;;;2.67;;
80541;SDS011;69870;51.460;8.842;2023-07-31T10:39:54;4.45;;;2.05;;
80541;SDS011;69870;51.460;8.842;2023-07-31T10:42:27;5.15;;;2.55;;
80541;SDS011;69870;51.460;8.842;2023-07-31T10:44:56;5.63;;;2.30;;
80541;SDS011;69870;51.460;8.842;2023-07-31T10:47:24;5.10;;;2.05;;
80541;SDS011;69870;51.460;8.842;2023-07-31T10:49:51;4.18;;;1.88;;
80541;SDS011;69870;51.460;8.842;2023-07-31T10:52:19;1.98;;;1.60;;
80541;SDS011;69870;51.460;8.842;2023-07-31T10:54:48;2.92;;;1.83;;
80541;SDS011;69870;51.460;8.842;2023-07-31T10:57:20;5.20;;;2.47;;
80541;SDS011;69870;51.460;8.842;2023-07-31T10:59:48;8.40;;;2.53;;
80541;SDS011;69870;51.460;8.842;2023-07-31T11:02:26;3.38;;;1.60;;
80541;SDS011;69870;51.460;8.842;2023-07-31T11:05:07;5.82;;;1.65;;
80541;SDS011;69870;51.460;8.842;2023-07-31T11:07:47;4.70;;;1.70;;
80541;SDS011;69870;51.460;8.842;2023-07-31T11:10:15;4.63;;;1.30;;
80541;SDS011;69870;51.460;8.842;2023-07-31T11:12:43;2.47;;;1.10;;
80541;SDS011;69870;51.460;8.842;2023-07-31T11:15:11;4.55;;;1.20;;
80541;SDS011;69870;51.460;8.842;2023-07-31T11:17:39;3.05;;;1.08;;
80541;SDS011;69870;51.460;8.842;2023-07-31T11:20:06;2.63;;;1.10;;
80541;SDS011;69870;51.460;8.842;2023-07-31T11:22:34;2.42;;;1.10;;
80541;SDS011;69870;51.460;8.842;2023-07-31T11:25:01;2.60;;;1.05;;
80541;SDS011;69870;51.460;8.842;2023-07-31T11:27:27;3.15;;;1.58;;
80541;SDS011;69870;51.460;8.842;2023-07-31T11:29:59;77.55;;;39.08;;
80541;SDS011;69870;51.460;8.842;2023-07-31T11:32:26;143.90;;;61.65;;
80541;SDS011;69870;51.460;8.842;2023-07-31T11:34:54;211.85;;;85.95;;
80541;SDS011;69870;51.460;8.842;2023-07-31T11:37:21;87.20;;;33.80;;
80541;SDS011;69870;51.460;8.842;2023-07-31T11:39:58;59.38;;;24.70;;
80541;SDS011;69870;51.460;8.842;2023-07-31T11:42:25;55.75;;;21.52;;
80541;SDS011;69870;51.460;8.842;2023-07-31T11:44:51;114.75;;;49.25;;
80541;SDS011;69870;51.460;8.842;2023-07-31T11:47:18;82.07;;;31.70;;
80541;SDS011;69870;51.460;8.842;2023-07-31T11:49:45;6.45;;;2.85;;
80541;SDS011;69870;51.460;8.842;2023-07-31T11:52:13;10.50;;;4.00;;
80541;SDS011;69870;51.460;8.842;2023-07-31T11:54:41;49.90;;;20.05;;
80541;SDS011;69870;51.460;8.842;2023-07-31T11:57:07;11.52;;;4.45;;
80541;SDS011;69870;51.460;8.842;2023-07-31T11:59:34;13.00;;;4.75;;
80541;SDS011;69870;51.460;8.842;2023-07-31T12:02:01;6.47;;;2.35;;
80541;SDS011;69870;51.460;8.842;2023-07-31T12:04:28;2.22;;;1.27;;
80541;SDS011;69870;51.460;8.842;2023-07-31T12:06:55;6.30;;;2.55;;
80541;SDS011;69870;51.460;8.842;2023-07-31T12:09:23;5.88;;;1.10;;
80541;SDS011;69870;51.460;8.842;2023-07-31T12:11:51;12.55;;;4.57;;
80541;SDS011;69870;51.460;8.842;2023-07-31T12:14:19;4.63;;;2.15;;
80541;SDS011;69870;51.460;8.842;2023-07-31T12:16:46;11.45;;;4.13;;
80541;SDS011;69870;51.460;8.842;2023-07-31T12:19:13;1.33;;;0.70;;
80541;SDS011;69870;51.460;8.842;2023-07-31T12:21:39;5.53;;;2.80;;
80541;SDS011;69870;51.460;8.842;2023-07-31T12:24:06;1.40;;;0.77;;
80541;SDS011;69870;51.460;8.842;2023-07-31T12:26:34;2.65;;;1.25;;
80541;SDS011;69870;51.460;8.842;2023-07-31T12:29:01;4.38;;;1.50;;
80541;SDS011;69870;51.460;8.842;2023-07-31T12:31:28;4.43;;;1.10;;
80541;SDS011;69870;51.460;8.842;2023-07-31T12:33:55;4.15;;;2.25;;
80541;SDS011;69870;51.460;8.842;2023-07-31T12:36:22;2.17;;;1.25;;
80541;SDS011;69870;51.460;8.842;2023-07-31T12:38:50;3.80;;;1.10;;
80541;SDS011;69870;51.460;8.842;2023-07-31T12:41:18;3.13;;;0.95;;
80541;SDS011;69870;51.460;8.842;2023-07-31T12:43:46;2.13;;;0.85;;
80541;SDS011;69870;51.460;8.842;2023-07-31T12:46:12;3.33;;;1.20;;
80541;SDS011;69870;51.460;8.842;2023-07-31T12:48:40;1.95;;;0.82;;
80541;SDS011;69870;51.460;8.842;2023-07-31T12:51:07;3.78;;;1.10;;
80541;SDS011;69870;51.460;8.842;2023-07-31T12:53:34;2.78;;;1.13;;
80541;SDS011;69870;51.460;8.842;2023-07-31T12:56:01;1.52;;;1.08;;
80541;SDS011;69870;51.460;8.842;2023-07-31T12:58:28;3.97;;;1.10;;
80541;SDS011;69870;51.460;8.842;2023-07-31T13:00:55;2.65;;;1.58;;
80541;SDS011;69870;51.460;8.842;2023-07-31T13:03:22;4.18;;;1.70;;
80541;SDS011;69870;51.460;8.842;2023-07-31T13:05:49;2.40;;;1.27;;
80541;SDS011;69870;51.460;8.842;2023-07-31T13:08:17;5.55;;;1.73;;
80541;SDS011;69870;51.460;8.842;2023-07-31T13:10:43;4.40;;;1.70;;
80541;SDS011;69870;51.460;8.842;2023-07-31T13:13:10;5.07;;;1.40;;
80541;SDS011;69870;51.460;8.842;2023-07-31T13:15:37;2.80;;;1.70;;
80541;SDS011;69870;51.460;8.842;2023-07-31T13:18:05;2.65;;;1.42;;
80541;SDS011;69870;51.460;8.842;2023-07-31T13:20:31;2.63;;;1.20;;
80541;SDS011;69870;51.460;8.842;2023-07-31T13:22:58;3.92;;;1.75;;
80541;SDS011;69870;51.460;8.842;2023-07-31T13:25:24;5.13;;;1.38;;
80541;SDS011;69870;51.460;8.842;2023-07-31T13:27:51;3.55;;;1.65;;
80541;SDS011;69870;51.460;8.842;2023-07-31T13:30:17;5.80;;;2.42;;
80541;SDS011;69870;51.460;8.842;2023-07-31T13:32:44;3.67;;;1.90;;
80541;SDS011;69870;51.460;8.842;2023-07-31T13:35:12;3.10;;;1.33;;
80541;SDS011;69870;51.460;8.842;2023-07-31T13:37:38;1.83;;;1.23;;
80541;SDS011;69870;51.460;8.842;2023-07-31T13:40:05;3.28;;;1.83;;
80541;SDS011;69870;51.460;8.842;2023-07-31T13:42:32;8.90;;;1.90;;
80541;SDS011;69870;51.460;8.842;2023-07-31T13:44:59;3.80;;;1.60;;
80541;SDS011;69870;51.460;8.842;2023-07-31T13:47:26;2.38;;;1.67;;
80541;SDS011;69870;51.460;8.842;2023-07-31T13:49:52;4.72;;;1.48;;
80541;SDS011;69870;51.460;8.842;2023-07-31T13:52:20;3.92;;;1.50;;
80541;SDS011;69870;51.460;8.842;2023-07-31T13:54:47;6.43;;;2.03;;
80541;SDS011;69870;51.460;8.842;2023-07-31T13:57:13;5.80;;;1.40;;
80541;SDS011;69870;51.460;8.842;2023-07-31T13:59:40;6.93;;;1.92;;
80541;SDS011;69870;51.460;8.842;2023-07-31T14:02:07;2.95;;;1.20;;
80541;SDS011;69870;51.460;8.842;2023-07-31T14:04:33;4.22;;;1.42;;
80541;SDS011;69870;51.460;8.842;2023-07-31T14:07:00;5.10;;;1.50;;
80541;SDS011;69870;51.460;8.842;2023-07-31T14:09:28;3.97;;;1.63;;
80541;SDS011;69870;51.460;8.842;2023-07-31T14:11:54;7.15;;;1.50;;
80541;SDS011;69870;51.460;8.842;2023-07-31T14:14:21;4.70;;;1.88;;
80541;SDS011;69870;51.460;8.842;2023-07-31T14:16:47;2.60;;;1.50;;
80541;SDS011;69870;51.460;8.842;2023-07-31T14:19:14;2.28;;;1.30;;
80541;SDS011;69870;51.460;8.842;2023-07-31T14:21:41;3.78;;;1.40;;
80541;SDS011;69870;51.460;8.842;2023-07-31T14:24:07;2.92;;;1.40;;
80541;SDS011;69870;51.460;8.842;2023-07-31T14:26:36;5.85;;;1.85;;
80541;SDS011;69870;51.460;8.842;2023-07-31T14:29:03;4.10;;;1.55;;
80541;SDS011;69870;51.460;8.842;2023-07-31T14:31:29;3.08;;;1.70;;
80541;SDS011;69870;51.460;8.842;2023-07-31T14:33:56;4.65;;;1.63;;
80541;SDS011;69870;51.460;8.842;2023-07-31T14:36:22;4.75;;;1.80;;
80541;SDS011;69870;51.460;8.842;2023-07-31T14:38:49;3.55;;;1.90;;
80541;SDS011;69870;51.460;8.842;2023-07-31T14:41:15;5.28;;;2.50;;
80541;SDS011;69870;51.460;8.842;2023-07-31T14:43:43;7.30;;;2.53;;